sensor_id;sensor_type;location;lat;lon;timestamp;pressure;altitude;pressure_sealevel;temperature
75431;BMP280;64127;51.488;5.462;2023-04-25T00:02:18;100895.41;;;10.71
75431;BMP280;64127;51.488;5.462;2023-04-25T00:04:51;100898.16;;;10.74
75431;BMP280;64127;51.488;5.462;2023-04-25T00:07:25;100883.81;;;10.65
75431;BMP280;64127;51.488;5.462;2023-04-25T00:09:57;100909.72;;;10.79
75431;BMP280;64127;51.488;5.462;2023-04-25T00:12:29;100907.81;;;10.75
75431;BMP280;64127;51.488;5.462;2023-04-25T00:15:02;100905.19;;;10.75
75431;BMP280;64127;51.488;5.462;2023-04-25T00:17:34;100913.88;;;10.74
75431;BMP280;64127;51.488;5.462;2023-04-25T00:20:07;100915.47;;;10.70
75431;BMP280;64127;51.488;5.462;2023-04-25T00:22:41;100913.75;;;10.71
75431;BMP280;64127;51.488;5.462;2023-04-25T00:25:13;100879.69;;;10.50
75431;BMP280;64127;51.488;5.462;2023-04-25T00:27:45;100918.00;;;10.68
75431;BMP280;64127;51.488;5.462;2023-04-25T00:30:17;100909.28;;;10.68
75431;BMP280;64127;51.488;5.462;2023-04-25T00:32:49;100918.00;;;10.68
75431;BMP280;64127;51.488;5.462;2023-04-25T00:35:21;100916.28;;;10.69
75431;BMP280;64127;51.488;5.462;2023-04-25T00:37:54;100908.38;;;10.67
75431;BMP280;64127;51.488;5.462;2023-04-25T00:40:27;100911.00;;;10.67
75431;BMP280;64127;51.488;5.462;2023-04-25T00:42:59;100906.59;;;10.66
75431;BMP280;64127;51.488;5.462;2023-04-25T00:45:33;100910.44;;;10.75
75431;BMP280;64127;51.488;5.462;2023-04-25T00:48:08;100899.81;;;10.72
75431;BMP280;64127;51.488;5.462;2023-04-25T00:50:41;100898.97;;;10.73
75431;BMP280;64127;51.488;5.462;2023-04-25T00:53:14;100897.31;;;10.75
75431;BMP280;64127;51.488;5.462;2023-04-25T00:55:47;100903.50;;;10.77
75431;BMP280;64127;51.488;5.462;2023-04-25T00:58:21;100909.56;;;10.76
75431;BMP280;64127;51.488;5.462;2023-04-25T01:00:53;100910.31;;;10.72
75431;BMP280;64127;51.488;5.462;2023-04-25T01:03:28;100917.06;;;10.66
75431;BMP280;64127;51.488;5.462;2023-04-25T01:06:01;100908.06;;;10.60
75431;BMP280;64127;51.488;5.462;2023-04-25T01:08:34;100910.34;;;10.52
75431;BMP280;64127;51.488;5.462;2023-04-25T01:11:07;100900.56;;;10.48
75431;BMP280;64127;51.488;5.462;2023-04-25T01:13:39;100889.06;;;10.45
75431;BMP280;64127;51.488;5.462;2023-04-25T01:16:11;100911.34;;;10.54
75431;BMP280;64127;51.488;5.462;2023-04-25T01:18:44;100910.44;;;10.54
75431;BMP280;64127;51.488;5.462;2023-04-25T01:21:17;100904.03;;;10.47
75431;BMP280;64127;51.488;5.462;2023-04-25T01:23:49;100917.19;;;10.49
75431;BMP280;64127;51.488;5.462;2023-04-25T01:26:22;100918.91;;;10.48
75431;BMP280;64127;51.488;5.462;2023-04-25T01:28:55;100921.28;;;10.42
75431;BMP280;64127;51.488;5.462;2023-04-25T01:31:28;100922.25;;;10.44
75431;BMP280;64127;51.488;5.462;2023-04-25T01:34:01;100925.81;;;10.46
75431;BMP280;64127;51.488;5.462;2023-04-25T01:36:34;100919.63;;;10.44
75431;BMP280;64127;51.488;5.462;2023-04-25T01:39:07;100869.34;;;10.13
75431;BMP280;64127;51.488;5.462;2023-04-25T01:41:39;100921.28;;;10.42
75431;BMP280;64127;51.488;5.462;2023-04-25T01:44:11;100920.38;;;10.42
75431;BMP280;64127;51.488;5.462;2023-04-25T01:46:43;100918.53;;;10.39
75431;BMP280;64127;51.488;5.462;2023-04-25T01:49:16;100934.59;;;10.47
75431;BMP280;64127;51.488;5.462;2023-04-25T01:51:48;100928.44;;;10.46
75431;BMP280;64127;51.488;5.462;2023-04-25T01:54:20;100932.00;;;10.48
75431;BMP280;64127;51.488;5.462;2023-04-25T01:56:52;100929.38;;;10.48
75431;BMP280;64127;51.488;5.462;2023-04-25T01:59:24;100923.97;;;10.44
75431;BMP280;64127;51.488;5.462;2023-04-25T02:01:57;100929.09;;;10.41
75431;BMP280;64127;51.488;5.462;2023-04-25T02:04:30;100931.50;;;10.36
75431;BMP280;64127;51.488;5.462;2023-04-25T02:07:03;100940.06;;;10.32
75431;BMP280;64127;51.488;5.462;2023-04-25T02:09:35;100941.84;;;10.33
75431;BMP280;64127;51.488;5.462;2023-04-25T02:12:09;100941.97;;;10.36
75431;BMP280;64127;51.488;5.462;2023-04-25T02:14:41;100941.97;;;10.36
75431;BMP280;64127;51.488;5.462;2023-04-25T02:17:14;100940.19;;;10.35
75431;BMP280;64127;51.488;5.462;2023-04-25T02:19:46;100941.97;;;10.36
75431;BMP280;64127;51.488;5.462;2023-04-25T02:22:18;100948.03;;;10.35
75431;BMP280;64127;51.488;5.462;2023-04-25T02:24:50;100946.31;;;10.36
75431;BMP280;64127;51.488;5.462;2023-04-25T02:27:22;100899.78;;;10.11
75431;BMP280;64127;51.488;5.462;2023-04-25T02:29:54;100947.13;;;10.35
75431;BMP280;64127;51.488;5.462;2023-04-25T02:32:26;100954.88;;;10.32
75431;BMP280;64127;51.488;5.462;2023-04-25T02:34:58;100952.06;;;10.27
75431;BMP280;64127;51.488;5.462;2023-04-25T02:37:37;100953.56;;;10.22
75431;BMP280;64127;51.488;5.462;2023-04-25T02:40:10;100956.88;;;10.18
75431;BMP280;64127;51.488;5.462;2023-04-25T02:42:42;100962.00;;;10.15
75431;BMP280;64127;51.488;5.462;2023-04-25T02:45:14;100960.19;;;10.14
75431;BMP280;64127;51.488;5.462;2023-04-25T02:47:46;100960.19;;;10.14
75431;BMP280;64127;51.488;5.462;2023-04-25T02:50:18;100962.00;;;10.15
75431;BMP280;64127;51.488;5.462;2023-04-25T02:52:50;100944.19;;;10.08
75431;BMP280;64127;51.488;5.462;2023-04-25T02:55:22;100959.88;;;10.08
75431;BMP280;64127;51.488;5.462;2023-04-25T02:57:57;100944.19;;;10.08
75431;BMP280;64127;51.488;5.462;2023-04-25T03:00:29;100951.22;;;10.09
75431;BMP280;64127;51.488;5.462;2023-04-25T03:03:02;100951.22;;;10.09
75431;BMP280;64127;51.488;5.462;2023-04-25T03:05:34;100951.22;;;10.09
75431;BMP280;64127;51.488;5.462;2023-04-25T03:08:06;100945.97;;;10.09
75431;BMP280;64127;51.488;5.462;2023-04-25T03:10:38;100954.66;;;10.08
75431;BMP280;64127;51.488;5.462;2023-04-25T03:13:10;100955.69;;;10.11
75431;BMP280;64127;51.488;5.462;2023-04-25T03:15:43;100954.78;;;10.11
75431;BMP280;64127;51.488;5.462;2023-04-25T03:18:15;100968.72;;;10.10
75431;BMP280;64127;51.488;5.462;2023-04-25T03:20:47;100948.19;;;10.00
75431;BMP280;64127;51.488;5.462;2023-04-25T03:23:19;100962.63;;;10.11
75431;BMP280;64127;51.488;5.462;2023-04-25T03:25:51;100962.72;;;10.12
75431;BMP280;64127;51.488;5.462;2023-04-25T03:28:23;100971.47;;;10.13
75431;BMP280;64127;51.488;5.462;2023-04-25T03:30:55;100963.63;;;10.13
75431;BMP280;64127;51.488;5.462;2023-04-25T03:33:27;100966.09;;;10.10
75431;BMP280;64127;51.488;5.462;2023-04-25T03:35:59;100966.25;;;10.13
75431;BMP280;64127;51.488;5.462;2023-04-25T03:38:31;100907.13;;;9.80
75431;BMP280;64127;51.488;5.462;2023-04-25T03:41:03;100945.41;;;9.97
75431;BMP280;64127;51.488;5.462;2023-04-25T03:43:35;100959.88;;;10.08
75431;BMP280;64127;51.488;5.462;2023-04-25T03:46:07;100968.94;;;10.14
75431;BMP280;64127;51.488;5.462;2023-04-25T03:48:39;100958.47;;;10.14
75431;BMP280;64127;51.488;5.462;2023-04-25T03:51:11;100962.00;;;10.15
75431;BMP280;64127;51.488;5.462;2023-04-25T03:53:43;100958.38;;;10.13
75431;BMP280;64127;51.488;5.462;2023-04-25T03:56:15;100961.16;;;10.16
75431;BMP280;64127;51.488;5.462;2023-04-25T03:58:47;100925.31;;;9.96
75431;BMP280;64127;51.488;5.462;2023-04-25T04:01:19;100969.03;;;10.16
75431;BMP280;64127;51.488;5.462;2023-04-25T04:03:51;100964.69;;;10.16
75431;BMP280;64127;51.488;5.462;2023-04-25T04:06:24;100980.44;;;10.18
75431;BMP280;64127;51.488;5.462;2023-04-25T04:08:55;100977.69;;;10.15
75431;BMP280;64127;51.488;5.462;2023-04-25T04:11:28;100977.69;;;10.15
75431;BMP280;64127;51.488;5.462;2023-04-25T04:14:00;100981.72;;;10.08
75431;BMP280;64127;51.488;5.462;2023-04-25T04:16:32;100982.41;;;10.04
75431;BMP280;64127;51.488;5.462;2023-04-25T04:19:05;100990.59;;;10.30
75431;BMP280;64127;51.488;5.462;2023-04-25T04:21:37;100989.59;;;10.08
75431;BMP280;64127;51.488;5.462;2023-04-25T04:24:09;100990.28;;;10.04
75431;BMP280;64127;51.488;5.462;2023-04-25T04:26:42;100991.81;;;9.99
75431;BMP280;64127;51.488;5.462;2023-04-25T04:29:16;100989.91;;;9.97
75431;BMP280;64127;51.488;5.462;2023-04-25T04:31:52;100996.91;;;9.96
75431;BMP280;64127;51.488;5.462;2023-04-25T04:34:25;100987.56;;;9.84
75431;BMP280;64127;51.488;5.462;2023-04-25T04:36:57;101006.34;;;9.93
75431;BMP280;64127;51.488;5.462;2023-04-25T04:39:29;101003.63;;;9.91
75431;BMP280;64127;51.488;5.462;2023-04-25T04:42:02;100997.44;;;9.89
75431;BMP280;64127;51.488;5.462;2023-04-25T04:44:34;101005.47;;;9.94
75431;BMP280;64127;51.488;5.462;2023-04-25T04:47:07;101006.47;;;9.96
75431;BMP280;64127;51.488;5.462;2023-04-25T04:49:39;101010.84;;;9.97
75431;BMP280;64127;51.488;5.462;2023-04-25T04:52:11;101014.47;;;9.99
75431;BMP280;64127;51.488;5.462;2023-04-25T04:54:43;101011.56;;;9.93
75431;BMP280;64127;51.488;5.462;2023-04-25T04:57:15;101019.63;;;9.97
75431;BMP280;64127;51.488;5.462;2023-04-25T04:59:48;101026.72;;;10.00
75431;BMP280;64127;51.488;5.462;2023-04-25T05:02:20;101027.69;;;10.02
75431;BMP280;64127;51.488;5.462;2023-04-25T05:04:52;101022.22;;;9.97
75431;BMP280;64127;51.488;5.462;2023-04-25T05:07:24;100988.25;;;9.80
75431;BMP280;64127;51.488;5.462;2023-04-25T05:09:56;101027.56;;;9.99
75431;BMP280;64127;51.488;5.462;2023-04-25T05:12:28;101041.88;;;10.07
75431;BMP280;64127;51.488;5.462;2023-04-25T05:15:00;100993.47;;;9.80
75431;BMP280;64127;51.488;5.462;2023-04-25T05:17:32;101029.41;;;10.01
75431;BMP280;64127;51.488;5.462;2023-04-25T05:20:07;101049.94;;;10.11
75431;BMP280;64127;51.488;5.462;2023-04-25T05:22:40;101052.81;;;10.16
75431;BMP280;64127;51.488;5.462;2023-04-25T05:25:13;101058.34;;;10.22
75431;BMP280;64127;51.488;5.462;2023-04-25T05:27:45;101068.94;;;10.25
75431;BMP280;64127;51.488;5.462;2023-04-25T05:30:17;101070.75;;;10.26
75431;BMP280;64127;51.488;5.462;2023-04-25T05:32:49;101073.41;;;10.28
75431;BMP280;64127;51.488;5.462;2023-04-25T05:35:22;101051.59;;;10.27
75431;BMP280;64127;51.488;5.462;2023-04-25T05:37:54;101060.53;;;10.32
75431;BMP280;64127;51.488;5.462;2023-04-25T05:40:27;101062.22;;;10.30
75431;BMP280;64127;51.488;5.462;2023-04-25T05:42:58;101062.34;;;10.33
75431;BMP280;64127;51.488;5.462;2023-04-25T05:45:30;101067.72;;;10.36
75431;BMP280;64127;51.488;5.462;2023-04-25T05:48:02;101069.53;;;10.37
75431;BMP280;64127;51.488;5.462;2023-04-25T05:50:35;101032.81;;;10.18
75431;BMP280;64127;51.488;5.462;2023-04-25T05:53:06;101081.31;;;10.47
75431;BMP280;64127;51.488;5.462;2023-04-25T05:55:38;101076.41;;;10.54
75431;BMP280;64127;51.488;5.462;2023-04-25T05:58:11;101085.34;;;10.59
75431;BMP280;64127;51.488;5.462;2023-04-25T06:00:43;101083.00;;;10.65
75431;BMP280;64127;51.488;5.462;2023-04-25T06:03:15;101089.09;;;10.64
75431;BMP280;64127;51.488;5.462;2023-04-25T06:05:51;101098.72;;;10.65
75431;BMP280;64127;51.488;5.462;2023-04-25T06:08:23;101093.47;;;10.65
75431;BMP280;64127;51.488;5.462;2023-04-25T06:10:55;101103.84;;;10.62
75431;BMP280;64127;51.488;5.462;2023-04-25T06:13:27;101107.31;;;10.61
75431;BMP280;64127;51.488;5.462;2023-04-25T06:15:59;101117.94;;;10.64
75431;BMP280;64127;51.488;5.462;2023-04-25T06:18:31;101065.91;;;10.35
75431;BMP280;64127;51.488;5.462;2023-04-25T06:21:03;101111.91;;;10.67
75431;BMP280;64127;51.488;5.462;2023-04-25T06:23:35;101106.28;;;10.58
75431;BMP280;64127;51.488;5.462;2023-04-25T06:26:07;101114.19;;;10.59
75431;BMP280;64127;51.488;5.462;2023-04-25T06:28:39;101117.78;;;10.61
75431;BMP280;64127;51.488;5.462;2023-04-25T06:31:12;101118.63;;;10.60
75431;BMP280;64127;51.488;5.462;2023-04-25T06:33:44;101112.56;;;10.61
75431;BMP280;64127;51.488;5.462;2023-04-25T06:36:16;101116.66;;;10.76
75431;BMP280;64127;51.488;5.462;2023-04-25T06:38:48;101112.84;;;11.07
75431;BMP280;64127;51.488;5.462;2023-04-25T06:41:20;101110.59;;;11.37
75431;BMP280;64127;51.488;5.462;2023-04-25T06:43:52;101099.38;;;11.40
75431;BMP280;64127;51.488;5.462;2023-04-25T06:46:24;101125.06;;;11.69
75431;BMP280;64127;51.488;5.462;2023-04-25T06:48:56;101113.63;;;11.88
75431;BMP280;64127;51.488;5.462;2023-04-25T06:51:28;101117.97;;;12.09
75431;BMP280;64127;51.488;5.462;2023-04-25T06:54:01;101124.03;;;12.29
75431;BMP280;64127;51.488;5.462;2023-04-25T06:56:35;101129.75;;;12.41
75431;BMP280;64127;51.488;5.462;2023-04-25T06:59:08;101133.69;;;12.52
75431;BMP280;64127;51.488;5.462;2023-04-25T07:01:40;101124.22;;;12.57
75431;BMP280;64127;51.488;5.462;2023-04-25T07:04:12;101119.44;;;12.69
75431;BMP280;64127;51.488;5.462;2023-04-25T07:06:44;101109.41;;;12.59
75431;BMP280;64127;51.488;5.462;2023-04-25T07:09:18;101124.47;;;12.63
75431;BMP280;64127;51.488;5.462;2023-04-25T07:11:51;101122.28;;;12.76
75431;BMP280;64127;51.488;5.462;2023-04-25T07:14:23;101123.69;;;12.90
75431;BMP280;64127;51.488;5.462;2023-04-25T07:16:55;101122.91;;;12.92
75431;BMP280;64127;51.488;5.462;2023-04-25T07:19:28;101125.69;;;12.97
75431;BMP280;64127;51.488;5.462;2023-04-25T07:22:01;101116.84;;;12.95
75431;BMP280;64127;51.488;5.462;2023-04-25T07:24:33;101138.69;;;13.16
75431;BMP280;64127;51.488;5.462;2023-04-25T07:27:05;101141.81;;;13.30
75431;BMP280;64127;51.488;5.462;2023-04-25T07:29:37;101136.91;;;13.40
75431;BMP280;64127;51.488;5.462;2023-04-25T07:32:09;101141.75;;;13.53
75431;BMP280;64127;51.488;5.462;2023-04-25T07:34:44;101137.91;;;13.69
75431;BMP280;64127;51.488;5.462;2023-04-25T07:37:16;101139.63;;;13.94
75431;BMP280;64127;51.488;5.462;2023-04-25T07:39:50;101140.97;;;14.09
75431;BMP280;64127;51.488;5.462;2023-04-25T07:42:22;101143.47;;;14.05
75431;BMP280;64127;51.488;5.462;2023-04-25T07:44:54;101145.06;;;14.00
75431;BMP280;64127;51.488;5.462;2023-04-25T07:47:26;101155.41;;;14.20
75431;BMP280;64127;51.488;5.462;2023-04-25T07:49:58;101157.59;;;14.07
75431;BMP280;64127;51.488;5.462;2023-04-25T07:52:30;101160.56;;;13.91
75431;BMP280;64127;51.488;5.462;2023-04-25T07:55:03;101158.09;;;13.68
75431;BMP280;64127;51.488;5.462;2023-04-25T07:57:35;101169.09;;;13.57
75431;BMP280;64127;51.488;5.462;2023-04-25T08:00:08;101169.78;;;13.51
75431;BMP280;64127;51.488;5.462;2023-04-25T08:02:43;101180.63;;;13.35
75431;BMP280;64127;51.488;5.462;2023-04-25T08:05:15;101183.72;;;13.24
75431;BMP280;64127;51.488;5.462;2023-04-25T08:07:51;101175.31;;;13.34
75431;BMP280;64127;51.488;5.462;2023-04-25T08:10:23;101182.53;;;13.64
75431;BMP280;64127;51.488;5.462;2023-04-25T08:12:55;101162.72;;;13.50
75431;BMP280;64127;51.488;5.462;2023-04-25T08:15:27;101190.53;;;13.42
75431;BMP280;64127;51.488;5.462;2023-04-25T08:17:59;101179.47;;;13.27
75431;BMP280;64127;51.488;5.462;2023-04-25T08:20:31;101187.34;;;13.27
75431;BMP280;64127;51.488;5.462;2023-04-25T08:23:03;101184.94;;;13.09
75431;BMP280;64127;51.488;5.462;2023-04-25T08:25:35;101190.50;;;12.95
75431;BMP280;64127;51.488;5.462;2023-04-25T08:28:07;101213.47;;;12.99
75431;BMP280;64127;51.488;5.462;2023-04-25T08:30:39;101216.47;;;12.86
75431;BMP280;64127;51.488;5.462;2023-04-25T08:33:12;101222.56;;;12.85
75431;BMP280;64127;51.488;5.462;2023-04-25T08:35:44;101217.06;;;13.01
75431;BMP280;64127;51.488;5.462;2023-04-25T08:38:17;101197.91;;;13.05
75431;BMP280;64127;51.488;5.462;2023-04-25T08:40:50;101223.50;;;13.31
75431;BMP280;64127;51.488;5.462;2023-04-25T08:43:24;101212.44;;;13.41
75431;BMP280;64127;51.488;5.462;2023-04-25T08:46:01;101231.19;;;13.50
75431;BMP280;64127;51.488;5.462;2023-04-25T08:48:33;101229.34;;;13.48
75431;BMP280;64127;51.488;5.462;2023-04-25T08:51:07;101229.53;;;13.52
75431;BMP280;64127;51.488;5.462;2023-04-25T08:53:51;101231.66;;;13.39
75431;BMP280;64127;51.488;5.462;2023-04-25T08:56:28;101232.44;;;13.36
75431;BMP280;64127;51.488;5.462;2023-04-25T08:59:02;101240.31;;;13.36
75431;BMP280;64127;51.488;5.462;2023-04-25T09:01:34;101240.59;;;13.44
75431;BMP280;64127;51.488;5.462;2023-04-25T09:04:11;101251.59;;;13.56
75431;BMP280;64127;51.488;5.462;2023-04-25T09:06:44;101259.91;;;13.68
75431;BMP280;64127;51.488;5.462;2023-04-25T09:09:16;101225.09;;;13.51
75431;BMP280;64127;51.488;5.462;2023-04-25T09:11:48;101273.38;;;13.76
75431;BMP280;64127;51.488;5.462;2023-04-25T09:14:22;101276.53;;;13.91
75431;BMP280;64127;51.488;5.462;2023-04-25T09:19:35;101281.59;;;13.85
75431;BMP280;64127;51.488;5.462;2023-04-25T09:22:12;101278.22;;;13.89
75431;BMP280;64127;51.488;5.462;2023-04-25T09:24:45;101285.78;;;14.03
75431;BMP280;64127;51.488;5.462;2023-04-25T09:27:20;101278.44;;;14.20
75431;BMP280;64127;51.488;5.462;2023-04-25T09:29:59;101285.19;;;14.37
75431;BMP280;64127;51.488;5.462;2023-04-25T09:32:33;101287.19;;;14.44
75431;BMP280;64127;51.488;5.462;2023-04-25T09:35:06;101296.97;;;14.23
75431;BMP280;64127;51.488;5.462;2023-04-25T09:37:40;101296.25;;;14.02
75431;BMP280;64127;51.488;5.462;2023-04-25T09:40:12;101294.56;;;14.04
75431;BMP280;64127;51.488;5.462;2023-04-25T09:42:44;101289.34;;;14.31
75431;BMP280;64127;51.488;5.462;2023-04-25T09:45:16;101271.94;;;14.36
75431;BMP280;64127;51.488;5.462;2023-04-25T09:47:48;101290.94;;;14.52
75431;BMP280;64127;51.488;5.462;2023-04-25T09:50:21;101300.63;;;14.52
75431;BMP280;64127;51.488;5.462;2023-04-25T09:53:06;101296.34;;;14.55
75431;BMP280;64127;51.488;5.462;2023-04-25T09:55:41;101299.56;;;14.73
75431;BMP280;64127;51.488;5.462;2023-04-25T09:58:15;101286.75;;;14.86
75431;BMP280;64127;51.488;5.462;2023-04-25T10:00:47;101292.97;;;14.88
75431;BMP280;64127;51.488;5.462;2023-04-25T10:03:22;101268.34;;;14.60
75431;BMP280;64127;51.488;5.462;2023-04-25T10:06:01;101294.81;;;14.62
75431;BMP280;64127;51.488;5.462;2023-04-25T10:08:36;101302.41;;;14.53
75431;BMP280;64127;51.488;5.462;2023-04-25T10:11:08;101304.19;;;14.54
75431;BMP280;64127;51.488;5.462;2023-04-25T10:13:42;101291.28;;;14.35
75431;BMP280;64127;51.488;5.462;2023-04-25T10:16:15;101307.81;;;14.32
75431;BMP280;64127;51.488;5.462;2023-04-25T10:18:48;101297.19;;;14.54
75431;BMP280;64127;51.488;5.462;2023-04-25T10:21:22;101299.16;;;14.90
75431;BMP280;64127;51.488;5.462;2023-04-25T10:23:55;101300.31;;;15.26
75431;BMP280;64127;51.488;5.462;2023-04-25T10:26:27;101294.41;;;15.64
75431;BMP280;64127;51.488;5.462;2023-04-25T10:29:03;101274.56;;;15.80
75431;BMP280;64127;51.488;5.462;2023-04-25T10:31:45;101305.41;;;16.12
75431;BMP280;64127;51.488;5.462;2023-04-25T10:34:24;101295.13;;;16.24
75431;BMP280;64127;51.488;5.462;2023-04-25T10:36:56;101290.75;;;16.25
75431;BMP280;64127;51.488;5.462;2023-04-25T10:39:28;101293.38;;;16.25
75431;BMP280;64127;51.488;5.462;2023-04-25T10:42:02;101297.50;;;16.14
75431;BMP280;64127;51.488;5.462;2023-04-25T10:44:37;101306.59;;;15.91
75431;BMP280;64127;51.488;5.462;2023-04-25T10:47:12;101307.06;;;15.76
75431;BMP280;64127;51.488;5.462;2023-04-25T10:49:44;101308.22;;;15.54
75431;BMP280;64127;51.488;5.462;2023-04-25T10:52:26;101294.75;;;15.47
75431;BMP280;64127;51.488;5.462;2023-04-25T10:55:03;101301.22;;;15.56
75431;BMP280;64127;51.488;5.462;2023-04-25T10:57:41;101294.59;;;15.42
75431;BMP280;64127;51.488;5.462;2023-04-25T11:00:20;101304.63;;;15.52
75431;BMP280;64127;51.488;5.462;2023-04-25T11:02:59;101306.50;;;15.56
75431;BMP280;64127;51.488;5.462;2023-04-25T11:05:34;101297.66;;;15.54
75431;BMP280;64127;51.488;5.462;2023-04-25T11:08:42;101306.59;;;15.59
75431;BMP280;64127;51.488;5.462;2023-04-25T11:11:19;101298.72;;;15.61
75431;BMP280;64127;51.488;5.462;2023-04-25T11:13:51;101306.66;;;15.62
75431;BMP280;64127;51.488;5.462;2023-04-25T11:16:27;101318.88;;;15.57
75431;BMP280;64127;51.488;5.462;2023-04-25T11:18:59;101282.75;;;15.28
75431;BMP280;64127;51.488;5.462;2023-04-25T11:21:31;101319.78;;;15.30
75431;BMP280;64127;51.488;5.462;2023-04-25T11:24:04;101326.41;;;15.15
75431;BMP280;64127;51.488;5.462;2023-04-25T11:26:36;101324.97;;;14.98
75431;BMP280;64127;51.488;5.462;2023-04-25T11:29:09;101333.97;;;14.77
75431;BMP280;64127;51.488;5.462;2023-04-25T11:31:44;101343.94;;;14.58
75431;BMP280;64127;51.488;5.462;2023-04-25T11:34:18;101349.63;;;14.45
75431;BMP280;64127;51.488;5.462;2023-04-25T11:36:52;101341.63;;;14.18
75431;BMP280;64127;51.488;5.462;2023-04-25T11:39:26;101354.44;;;14.08
75431;BMP280;64127;51.488;5.462;2023-04-25T11:41:58;101364.69;;;13.99
75431;BMP280;64127;51.488;5.462;2023-04-25T11:44:32;101366.03;;;13.88
75431;BMP280;64127;51.488;5.462;2023-04-25T11:47:04;101361.25;;;13.78
75431;BMP280;64127;51.488;5.462;2023-04-25T11:49:36;101364.00;;;13.81
75431;BMP280;64127;51.488;5.462;2023-04-25T11:52:09;101368.34;;;13.79
75431;BMP280;64127;51.488;5.462;2023-04-25T11:54:41;101359.81;;;13.86
75431;BMP280;64127;51.488;5.462;2023-04-25T11:57:14;101347.78;;;14.17
75431;BMP280;64127;51.488;5.462;2023-04-25T11:59:46;101350.09;;;14.59
75431;BMP280;64127;51.488;5.462;2023-04-25T12:02:25;101351.28;;;14.95
75431;BMP280;64127;51.488;5.462;2023-04-25T12:05:01;101320.28;;;15.18
75431;BMP280;64127;51.488;5.462;2023-04-25T12:07:52;101351.97;;;15.46
75431;BMP280;64127;51.488;5.462;2023-04-25T12:10:25;101345.78;;;15.46
75431;BMP280;64127;51.488;5.462;2023-04-25T12:13:00;101353.50;;;15.38
75431;BMP280;64127;51.488;5.462;2023-04-25T12:15:33;101347.88;;;15.54
75431;BMP280;64127;51.488;5.462;2023-04-25T12:18:06;101345.63;;;15.69
75431;BMP280;64127;51.488;5.462;2023-04-25T12:20:38;101360.19;;;15.55
75431;BMP280;64127;51.488;5.462;2023-04-25T12:23:10;101356.69;;;15.28
75431;BMP280;64127;51.488;5.462;2023-04-25T12:25:44;101337.25;;;14.96
75431;BMP280;64127;51.488;5.462;2023-04-25T12:28:19;101349.88;;;14.80
75431;BMP280;64127;51.488;5.462;2023-04-25T12:31:00;101354.50;;;14.85
75431;BMP280;64127;51.488;5.462;2023-04-25T12:33:36;101355.94;;;15.04
75431;BMP280;64127;51.488;5.462;2023-04-25T12:36:08;101345.38;;;15.32
75431;BMP280;64127;51.488;5.462;2023-04-25T12:38:42;101350.50;;;15.26
75431;BMP280;64127;51.488;5.462;2023-04-25T12:41:15;101362.19;;;15.34
75431;BMP280;64127;51.488;5.462;2023-04-25T12:43:47;101354.81;;;15.51
75431;BMP280;64127;51.488;5.462;2023-04-25T12:46:19;101352.94;;;15.48
75431;BMP280;64127;51.488;5.462;2023-04-25T12:48:51;101354.22;;;15.33
75431;BMP280;64127;51.488;5.462;2023-04-25T12:51:23;101363.31;;;15.42
75431;BMP280;64127;51.488;5.462;2023-04-25T12:53:57;101363.97;;;15.63
75431;BMP280;64127;51.488;5.462;2023-04-25T12:56:29;101366.97;;;15.76
75431;BMP280;64127;51.488;5.462;2023-04-25T12:59:02;101370.03;;;15.59
75431;BMP280;64127;51.488;5.462;2023-04-25T13:01:35;101369.56;;;15.44
75431;BMP280;64127;51.488;5.462;2023-04-25T13:04:07;101360.34;;;15.60
75431;BMP280;64127;51.488;5.462;2023-04-25T13:06:40;101357.66;;;15.88
75431;BMP280;64127;51.488;5.462;2023-04-25T13:09:12;101374.03;;;15.77
75431;BMP280;64127;51.488;5.462;2023-04-25T13:11:44;101365.72;;;15.63
75431;BMP280;64127;51.488;5.462;2023-04-25T13:14:17;101377.13;;;15.62
75431;BMP280;64127;51.488;5.462;2023-04-25T13:16:49;101392.78;;;15.54
75431;BMP280;64127;51.488;5.462;2023-04-25T13:19:21;101386.00;;;15.36
75431;BMP280;64127;51.488;5.462;2023-04-25T13:21:53;101375.94;;;15.24
75431;BMP280;64127;51.488;5.462;2023-04-25T13:24:26;101390.44;;;15.37
75431;BMP280;64127;51.488;5.462;2023-04-25T13:26:58;101394.09;;;15.42
75431;BMP280;64127;51.488;5.462;2023-04-25T13:29:30;101394.25;;;15.46
75431;BMP280;64127;51.488;5.462;2023-04-25T13:32:02;101392.88;;;15.57
75431;BMP280;64127;51.488;5.462;2023-04-25T13:34:34;101396.63;;;15.65
75431;BMP280;64127;51.488;5.462;2023-04-25T13:37:06;101390.06;;;15.81
75431;BMP280;64127;51.488;5.462;2023-04-25T13:39:39;101369.81;;;15.82
75431;BMP280;64127;51.488;5.462;2023-04-25T13:42:11;101390.38;;;15.92
75431;BMP280;64127;51.488;5.462;2023-04-25T13:44:43;101384.00;;;15.85
75431;BMP280;64127;51.488;5.462;2023-04-25T13:47:15;101381.56;;;15.93
75431;BMP280;64127;51.488;5.462;2023-04-25T13:49:47;101380.69;;;15.92
75431;BMP280;64127;51.488;5.462;2023-04-25T13:52:19;101379.25;;;16.05
75431;BMP280;64127;51.488;5.462;2023-04-25T13:54:51;101371.03;;;16.26
75431;BMP280;64127;51.488;5.462;2023-04-25T13:57:26;101387.13;;;16.35
75431;BMP280;64127;51.488;5.462;2023-04-25T13:59:58;101386.50;;;16.43
75431;BMP280;64127;51.488;5.462;2023-04-25T14:02:31;101386.56;;;16.46
75431;BMP280;64127;51.488;5.462;2023-04-25T14:05:04;101378.97;;;16.27
75431;BMP280;64127;51.488;5.462;2023-04-25T14:07:37;101375.25;;;16.19
75431;BMP280;64127;51.488;5.462;2023-04-25T14:10:09;101384.31;;;16.29
75431;BMP280;64127;51.488;5.462;2023-04-25T14:12:42;101383.78;;;16.40
75431;BMP280;64127;51.488;5.462;2023-04-25T14:15:14;101364.91;;;16.28
75431;BMP280;64127;51.488;5.462;2023-04-25T14:17:46;101380.63;;;16.22
75431;BMP280;64127;51.488;5.462;2023-04-25T14:20:20;101389.84;;;16.05
75431;BMP280;64127;51.488;5.462;2023-04-25T14:22:53;101386.00;;;15.94
75431;BMP280;64127;51.488;5.462;2023-04-25T14:25:27;101379.59;;;15.86
75431;BMP280;64127;51.488;5.462;2023-04-25T14:27:59;101388.22;;;15.79
75431;BMP280;64127;51.488;5.462;2023-04-25T14:30:31;101368.69;;;15.73
75431;BMP280;64127;51.488;5.462;2023-04-25T14:33:03;101376.09;;;15.87